Time;durP1;ratioP1;P1;durP2;ratioP2;P2;SDS_P1;SDS_P2;PMS_P1;PMS_P2;Temp;Humidity;BMP_temperature;BMP_pressure;BME280_temperature;BME280_humidity;BME280_pressure;Samples;Min_cycle;Max_cycle;Signal;HPM_P1;HPM_P2
2023/12/11 00:02:26;;;;;;;22.58;9.63;;;;;;;4.04;100.00;98490.09;4931683;29;20489;-86
2023/12/11 00:04:51;;;;;;;17.23;9.73;;;;;;;4.04;100.00;98484.94;4931777;29;20133;-86
2023/12/11 00:07:17;;;;;;;67.03;33.08;;;;;;;3.86;100.00;98455.59;4931175;29;20759;-86
2023/12/11 00:09:42;;;;;;;75.10;37.67;;;;;;;4.02;100.00;98472.13;4931751;29;20137;-86
2023/12/11 00:12:07;;;;;;;32.70;17.25;;;;;;;3.98;100.00;98480.88;4915701;29;20038;-87
2023/12/11 00:14:33;;;;;;;24.95;11.63;;;;;;;4.06;100.00;98489.16;4915644;29;20044;-86
2023/12/11 00:16:59;;;;;;;20.85;11.20;;;;;;;4.06;100.00;98496.03;4915644;29;20118;-86
2023/12/11 00:19:25;;;;;;;20.90;9.75;;;;;;;4.09;100.00;98495.91;4915322;29;20089;-86
2023/12/11 00:21:50;;;;;;;20.52;9.27;;;;;;;3.87;100.00;98465.81;4915645;29;20027;-86
2023/12/11 00:24:16;;;;;;;24.70;11.82;;;;;;;3.98;100.00;98481.72;4915460;29;20036;-86
2023/12/11 00:26:41;;;;;;;19.10;10.63;;;;;;;3.95;100.00;98483.56;4931601;29;20062;-86
2023/12/11 00:29:07;;;;;;;15.88;8.35;;;;;;;3.89;100.00;98466.63;4933860;29;20040;-86
2023/12/11 00:31:32;;;;;;;21.08;9.65;;;;;;;4.02;100.00;98495.31;4936788;29;20043;-86
2023/12/11 00:33:58;;;;;;;21.35;8.57;;;;;;;3.74;100.00;98439.69;4938086;29;20042;-86
2023/12/11 00:36:24;;;;;;;23.70;9.05;;;;;;;3.96;100.00;98472.34;4937033;29;20489;-86
2023/12/11 00:38:49;;;;;;;22.05;9.48;;;;;;;3.92;100.00;98457.94;4920421;29;20020;-86
2023/12/11 00:41:16;;;;;;;24.83;10.82;;;;;;;3.80;100.00;98435.22;4937063;29;20031;-85
2023/12/11 00:43:41;;;;;;;18.73;8.02;;;;;;;3.94;100.00;98453.56;4937230;29;20019;-86
2023/12/11 00:46:11;;;;;;;17.63;9.05;;;;;;;3.97;100.00;98463.75;4936857;29;20562;-86
2023/12/11 00:48:36;;;;;;;18.38;8.10;;;;;;;3.76;100.00;98424.22;4937191;29;20036;-86
2023/12/11 00:51:02;;;;;;;21.63;9.00;;;;;;;3.99;100.00;98449.06;4919776;29;20043;-87
2023/12/11 00:53:27;;;;;;;20.75;10.07;;;;;;;4.10;100.00;98458.97;4936524;29;20063;-87
2023/12/11 00:55:52;;;;;;;19.70;8.32;;;;;;;3.78;100.00;98388.91;4937127;29;20500;-86
2023/12/11 00:58:18;;;;;;;22.48;11.30;;;;;;;4.14;100.00;98455.34;4937166;29;20062;-87
2023/12/11 01:00:43;;;;;;;23.13;10.07;;;;;;;3.88;100.00;98399.72;4936993;29;20036;-86
2023/12/11 01:03:08;;;;;;;19.88;11.02;;;;;;;4.01;100.00;98436.97;4936583;29;20054;-85
2023/12/11 01:05:34;;;;;;;22.58;9.38;;;;;;;3.77;100.00;98415.56;4919724;29;20055;-86
2023/12/11 01:07:59;;;;;;;17.95;8.68;;;;;;;3.91;100.00;98436.47;4936947;29;20052;-86
2023/12/11 01:10:24;;;;;;;12.85;7.22;;;;;;;3.99;100.00;98444.75;4951370;29;20485;-86
2023/12/11 01:12:50;;;;;;;23.20;7.88;;;;;;;3.79;100.00;98410.34;4936831;29;20114;-86
2023/12/11 01:15:16;;;;;;;20.55;8.07;;;;;;;3.83;100.00;98422.22;4919428;29;20063;-86
2023/12/11 01:17:41;;;;;;;25.63;10.55;;;;;;;3.84;100.00;98409.31;4936591;29;20027;-87
2023/12/11 01:20:08;;;;;;;17.77;8.88;;;;;;;3.95;100.00;98394.25;4936331;29;20110;-86
2023/12/11 01:22:33;;;;;;;20.45;8.65;;;;;;;3.88;100.00;98367.06;4936959;29;20043;-85
2023/12/11 01:25:02;;;;;;;20.10;8.75;;;;;;;4.02;100.00;98376.81;4919446;29;20063;-87
2023/12/11 01:27:27;;;;;;;18.60;8.50;;;;;;;4.06;100.00;98367.22;4936162;29;20664;-87
2023/12/11 01:29:53;;;;;;;17.65;8.65;;;;;;;4.07;100.00;98379.19;4935187;29;20119;-86
2023/12/11 01:32:18;;;;;;;21.75;7.80;;;;;;;4.03;100.00;98369.91;4950939;29;20028;-87
2023/12/11 01:34:43;;;;;;;14.07;6.07;;;;;;;4.12;100.00;98385.00;4936182;29;20028;-86
2023/12/11 01:37:09;;;;;;;12.27;5.57;;;;;;;4.11;100.00;98371.28;4950570;29;20044;-87
2023/12/11 01:39:34;;;;;;;15.68;6.45;;;;;;;4.24;100.00;98398.22;4935575;29;20031;-87
2023/12/11 01:41:59;;;;;;;19.05;6.95;;;;;;;4.20;100.00;98393.25;4936220;29;20508;-86
2023/12/11 01:44:25;;;;;;;20.15;7.47;;;;;;;4.02;100.00;98371.66;4918915;29;20027;-87
2023/12/11 01:46:50;;;;;;;15.85;6.95;;;;;;;3.99;100.00;98385.50;4936288;29;20469;-87
2023/12/11 01:49:16;;;;;;;22.08;6.28;;;;;;;4.00;100.00;98363.13;4918449;29;20032;-87
2023/12/11 01:51:42;;;;;;;21.33;7.35;;;;;;;4.05;100.00;98374.13;4936117;29;20492;-87
2023/12/11 01:54:07;;;;;;;17.60;6.88;;;;;;;4.11;100.00;98373.84;4919191;29;20162;-86
2023/12/11 01:56:33;;;;;;;17.45;7.55;;;;;;;4.05;100.00;98361.22;4936077;29;20114;-86
2023/12/11 01:58:59;;;;;;;18.77;7.07;;;;;;;4.07;100.00;98356.84;4935976;29;20047;-87
2023/12/11 02:01:26;;;;;;;20.98;6.68;;;;;;;4.13;100.00;98348.88;4971221;28;20039;-86
2023/12/11 02:03:52;;;;;;;14.18;5.93;;;;;;;4.10;100.00;98330.97;4955384;28;20042;-87
2023/12/11 02:06:17;;;;;;;18.25;6.68;;;;;;;4.03;100.00;98293.47;4955361;28;20163;-86
2023/12/11 02:08:45;;;;;;;15.32;5.88;;;;;;;3.82;100.00;98269.44;4955389;28;20154;-86
2023/12/11 02:11:11;;;;;;;20.08;6.40;;;;;;;3.95;100.00;98283.47;4955085;28;20034;-86
2023/12/11 02:13:39;;;;;;;19.98;6.40;;;;;;;3.93;100.00;98281.88;4971637;28;20034;-86
2023/12/11 02:16:05;;;;;;;17.35;6.50;;;;;;;3.92;100.00;98278.47;4971573;28;20169;-86
2023/12/11 02:18:31;;;;;;;19.58;5.68;;;;;;;3.75;100.00;98248.25;4955201;28;20033;-86
2023/12/11 02:20:56;;;;;;;19.13;5.53;;;;;;;3.72;100.00;98260.41;4971760;28;20031;-86
2023/12/11 02:23:32;;;;;;;14.60;5.63;;;;;;;3.89;100.00;98283.75;4954953;28;20522;-87
2023/12/11 02:26:10;;;;;;;19.35;6.18;;;;;;;3.86;100.00;98272.72;4955111;28;20038;-86
2023/12/11 02:28:36;;;;;;;17.73;5.28;;;;;;;3.78;100.00;98265.31;4955228;28;20527;-87
2023/12/11 02:31:01;;;;;;;18.25;6.18;;;;;;;3.93;100.00;98280.13;4971335;28;20023;-87
2023/12/11 02:33:27;;;;;;;14.10;5.80;;;;;;;3.92;100.00;98281.03;4920053;29;20107;-87
2023/12/11 02:35:52;;;;;;;11.98;5.20;;;;;;;4.00;100.00;98278.13;4935175;29;20058;-87
2023/12/11 02:38:17;;;;;;;22.95;6.47;;;;;;;4.00;100.00;98270.41;4913414;29;20135;-87
2023/12/11 02:40:43;;;;;;;15.73;5.72;;;;;;;4.05;100.00;98281.38;4913798;29;20036;-87
2023/12/11 02:43:08;;;;;;;15.98;5.78;;;;;;;4.00;100.00;98252.38;4913568;29;20119;-87
2023/12/11 02:45:33;;;;;;;15.35;5.55;;;;;;;4.00;100.00;98245.50;4913342;29;20136;-86
2023/12/11 02:48:02;;;;;;;17.80;6.05;;;;;;;3.91;100.00;98219.28;4913514;29;20169;-86
2023/12/11 02:50:31;;;;;;;17.02;6.07;;;;;;;3.91;100.00;98217.53;4913297;29;20039;-87
2023/12/11 02:52:58;;;;;;;16.17;5.80;;;;;;;4.14;100.00;98242.31;4913430;29;20080;-86
2023/12/11 02:55:23;;;;;;;21.38;6.25;;;;;;;4.24;100.00;98245.34;4913077;29;20549;-86
2023/12/11 02:57:48;;;;;;;14.27;6.45;;;;;;;4.15;100.00;98225.94;4913231;29;20168;-86
2023/12/11 03:00:15;;;;;;;13.85;5.82;;;;;;;4.25;100.00;98242.66;4913168;29;20039;-87
2023/12/11 03:02:40;;;;;;;19.02;7.13;;;;;;;4.26;100.00;98233.22;4913435;29;20042;-86
2023/12/11 03:05:06;;;;;;;16.35;5.97;;;;;;;4.24;100.00;98222.97;4913423;29;20490;-87
2023/12/11 03:07:31;;;;;;;13.15;5.43;;;;;;;4.17;100.00;98211.28;4912981;29;20058;-87
2023/12/11 03:09:57;;;;;;;14.85;5.93;;;;;;;4.26;100.00;98212.63;4944782;29;20134;-87
2023/12/11 03:12:22;;;;;;;16.08;5.90;;;;;;;4.27;100.00;98218.59;4934468;29;20063;-87
2023/12/11 03:14:47;;;;;;;16.38;5.28;;;;;;;4.24;100.00;98212.66;4949086;29;20498;-86
2023/12/11 03:17:13;;;;;;;15.40;5.05;;;;;;;4.33;100.00;98215.75;4948938;29;20032;-86
2023/12/11 03:19:38;;;;;;;14.18;5.57;;;;;;;3.78;100.00;98133.13;4934737;29;20040;-86
2023/12/11 03:22:03;;;;;;;15.13;5.90;;;;;;;4.16;100.00;98180.41;4949372;28;20039;-86
2023/12/11 03:24:29;;;;;;;14.35;5.10;;;;;;;4.35;100.00;98212.19;4934350;29;20024;-86
2023/12/11 03:26:54;;;;;;;15.05;6.20;;;;;;;4.37;100.00;98212.13;4917365;29;20036;-87
2023/12/11 03:29:20;;;;;;;15.95;5.57;;;;;;;4.32;100.00;98190.88;4934009;29;20123;-87
2023/12/11 03:31:45;;;;;;;11.93;5.20;;;;;;;4.30;100.00;98193.53;4949386;29;20496;-86
2023/12/11 03:34:10;;;;;;;11.80;4.93;;;;;;;4.20;100.00;98174.22;4934412;29;20103;-87
2023/12/11 03:36:36;;;;;;;14.80;5.45;;;;;;;4.14;100.00;98164.19;4934294;29;20036;-87
2023/12/11 03:39:01;;;;;;;12.43;5.32;;;;;;;4.27;100.00;98192.81;4949091;29;20024;-87
2023/12/11 03:41:27;;;;;;;17.77;6.10;;;;;;;4.30;100.00;98198.69;4948626;28;20027;-87
2023/12/11 03:43:52;;;;;;;12.68;5.03;;;;;;;4.03;100.00;98145.78;4934201;29;20638;-87
2023/12/11 03:46:17;;;;;;;11.65;5.20;;;;;;;4.20;100.00;98182.78;4917077;29;20024;-87
2023/12/11 03:48:43;;;;;;;13.00;6.32;;;;;;;4.22;100.00;98175.81;4934725;29;20517;-87
2023/12/11 03:51:08;;;;;;;11.50;4.53;;;;;;;3.88;100.00;98127.53;4934166;29;20036;-87
2023/12/11 03:53:33;;;;;;;13.30;6.05;;;;;;;4.09;100.00;98179.00;4934303;29;20042;-87
2023/12/11 03:55:59;;;;;;;8.80;5.10;;;;;;;3.99;100.00;98153.63;4934107;29;20039;-86
2023/12/11 03:58:24;;;;;;;11.52;4.97;;;;;;;4.10;100.00;98180.69;4933868;29;20115;-87
2023/12/11 04:00:50;;;;;;;11.85;5.13;;;;;;;4.05;100.00;98175.75;4934357;29;20457;-86
2023/12/11 04:03:15;;;;;;;18.33;5.70;;;;;;;4.04;100.00;98174.03;4918178;29;20024;-87
2023/12/11 04:05:40;;;;;;;14.23;5.38;;;;;;;3.83;100.00;98134.59;4916291;29;20044;-86
2023/12/11 04:08:06;;;;;;;10.23;5.80;;;;;;;3.90;100.00;98148.06;4916245;29;20052;-86
2023/12/11 04:10:31;;;;;;;11.05;5.60;;;;;;;3.95;100.00;98152.09;4931986;29;20036;-86
2023/12/11 04:13:00;;;;;;;15.73;5.95;;;;;;;3.73;100.00;98123.03;4916214;29;20056;-86
2023/12/11 04:15:26;;;;;;;17.00;5.32;;;;;;;3.83;100.00;98138.91;4931614;29;20083;-86
2023/12/11 04:17:51;;;;;;;12.10;6.45;;;;;;;3.95;100.00;98154.66;4900480;29;20043;-87
2023/12/11 04:20:17;;;;;;;9.43;5.72;;;;;;;3.66;100.00;98101.84;4915988;29;20585;-87
2023/12/11 04:22:42;;;;;;;11.98;5.43;;;;;;;3.89;100.00;98147.22;4916179;29;20039;-86
2023/12/11 04:25:08;;;;;;;10.57;5.50;;;;;;;4.02;100.00;98154.41;4900169;29;20410;-87
2023/12/11 04:27:33;;;;;;;13.18;6.43;;;;;;;4.05;100.00;98159.44;4916137;29;20118;-86
2023/12/11 04:29:58;;;;;;;13.95;6.22;;;;;;;3.86;100.00;98111.28;4916104;29;20067;-86
2023/12/11 04:32:24;;;;;;;11.15;6.22;;;;;;;4.07;100.00;98158.47;4915674;29;20040;-86
2023/12/11 04:34:49;;;;;;;14.18;5.80;;;;;;;4.12;100.00;98147.94;4916026;29;20523;-86
2023/12/11 04:37:14;;;;;;;9.23;4.70;;;;;;;4.15;100.00;98145.25;4931200;29;20043;-87
2023/12/11 04:39:40;;;;;;;8.10;4.82;;;;;;;4.23;100.00;98146.56;4954827;29;20413;-84
2023/12/11 04:42:05;;;;;;;10.93;5.28;;;;;;;4.29;100.00;98142.03;4956273;29;20060;-84
2023/12/11 04:44:31;;;;;;;8.82;4.32;;;;;;;4.27;100.00;98143.84;4956275;29;20362;-84
2023/12/11 04:46:56;;;;;;;6.72;3.67;;;;;;;4.02;100.00;98077.13;4956318;29;20043;-84
2023/12/11 04:49:21;;;;;;;10.32;4.78;;;;;;;4.34;100.00;98129.78;4915278;29;20051;-84
2023/12/11 04:51:47;;;;;;;6.03;2.90;;;;;;;4.28;100.00;98112.03;4899791;29;20617;-84
2023/12/11 04:54:12;;;;;;;6.53;3.30;;;;;;;4.43;100.00;98124.22;4915729;29;20047;-84
2023/12/11 04:56:38;;;;;;;4.60;3.15;;;;;;;4.42;100.00;98119.94;4899568;29;20127;-84
2023/12/11 04:59:03;;;;;;;6.22;3.60;;;;;;;4.49;100.00;98127.31;4915591;29;20040;-84
2023/12/11 05:01:29;;;;;;;4.35;3.00;;;;;;;4.40;100.00;98112.28;4915322;29;20055;-83
2023/12/11 05:03:54;;;;;;;6.38;3.10;;;;;;;4.50;100.00;98120.44;4915711;29;20040;-83
2023/12/11 05:06:19;;;;;;;6.82;3.20;;;;;;;4.56;100.00;98120.16;4915138;29;20044;-83
2023/12/11 05:08:45;;;;;;;5.15;2.90;;;;;;;4.43;100.00;98096.69;4915318;29;20048;-83
2023/12/11 05:11:11;;;;;;;5.53;3.30;;;;;;;4.59;100.00;98114.84;4915298;29;20537;-83
2023/12/11 05:13:36;;;;;;;5.00;3.20;;;;;;;4.59;100.00;98111.44;4914816;29;20040;-83
2023/12/11 05:16:02;;;;;;;5.70;2.72;;;;;;;4.45;100.00;98087.13;4914330;29;20044;-83
2023/12/11 05:18:27;;;;;;;8.48;3.88;;;;;;;4.68;100.00;98121.34;4915358;29;20489;-83
2023/12/11 05:20:52;;;;;;;4.45;3.28;;;;;;;4.63;100.00;98116.38;4926675;29;20186;-83
2023/12/11 05:23:18;;;;;;;6.05;3.03;;;;;;;4.38;100.00;98069.44;4953272;29;20042;-83
2023/12/11 05:25:43;;;;;;;6.30;3.53;;;;;;;4.68;100.00;98122.16;4953809;29;20555;-83
2023/12/11 05:28:09;;;;;;;5.05;3.20;;;;;;;4.67;100.00;98117.88;4953585;29;20035;-83
2023/12/11 05:30:34;;;;;;;14.27;8.23;;;;;;;4.72;100.00;98128.84;4937212;29;20054;-84
2023/12/11 05:32:59;;;;;;;11.80;5.93;;;;;;;4.58;100.00;98092.53;4954427;29;20123;-84
2023/12/11 05:35:25;;;;;;;4.13;3.05;;;;;;;4.76;100.00;98114.03;4954490;29;20034;-84
2023/12/11 05:37:51;;;;;;;4.40;3.03;;;;;;;4.82;100.00;98128.41;4956401;29;20050;-85
2023/12/11 05:40:16;;;;;;;7.15;3.63;;;;;;;4.88;100.00;98126.34;4956652;29;20027;-84
2023/12/11 05:42:41;;;;;;;6.80;3.50;;;;;;;4.89;100.00;98132.38;4956511;29;20027;-85
2023/12/11 05:45:08;;;;;;;8.32;3.90;;;;;;;4.67;100.00;98096.44;4956459;29;20501;-85
2023/12/11 05:47:34;;;;;;;7.70;3.97;;;;;;;4.82;100.00;98107.78;4939862;29;20039;-85
2023/12/11 05:49:59;;;;;;;6.68;3.72;;;;;;;4.91;100.00;98128.78;4939359;29;20053;-85
2023/12/11 05:52:24;;;;;;;7.78;3.72;;;;;;;4.91;100.00;98135.69;4955615;28;20035;-85
2023/12/11 05:54:50;;;;;;;6.95;3.17;;;;;;;4.83;100.00;98105.09;4938027;29;20031;-85
2023/12/11 05:57:15;;;;;;;8.43;3.83;;;;;;;4.87;100.00;98116.94;4936724;29;20019;-85
2023/12/11 05:59:40;;;;;;;8.55;3.67;;;;;;;4.92;100.00;98117.56;4937621;29;20133;-86
2023/12/11 06:02:06;;;;;;;8.57;4.38;;;;;;;4.83;100.00;98110.25;4938138;29;20042;-85
2023/12/11 06:04:32;;;;;;;7.80;4.15;;;;;;;4.77;100.00;98102.84;4954767;29;20337;-86
2023/12/11 06:06:58;;;;;;;9.07;3.83;;;;;;;4.85;100.00;98110.22;4954755;29;20031;-86
2023/12/11 06:09:23;;;;;;;9.98;4.10;;;;;;;4.94;100.00;98118.34;4954362;29;20035;-86
2023/12/11 06:11:48;;;;;;;7.20;3.83;;;;;;;4.91;100.00;98118.47;4954444;29;20031;-82
2023/12/11 06:14:14;;;;;;;8.90;4.40;;;;;;;4.85;100.00;98111.03;4954878;29;20548;-83
2023/12/11 06:16:39;;;;;;;7.38;4.03;;;;;;;4.94;100.00;98125.25;4953246;29;20043;-82
2023/12/11 06:19:05;;;;;;;6.25;3.95;;;;;;;4.92;100.00;98119.31;4955057;29;20477;-83
2023/12/11 06:21:30;;;;;;;7.55;3.88;;;;;;;4.79;100.00;98092.44;4954393;29;20118;-82
2023/12/11 06:23:55;;;;;;;8.82;4.18;;;;;;;4.82;100.00;98098.28;4937403;29;20039;-83
2023/12/11 06:26:30;;;;;;;9.02;4.05;;;;;;;4.99;100.00;98123.28;4953918;28;20031;-81
2023/12/11 06:28:57;;;;;;;7.13;4.20;;;;;;;4.86;100.00;98099.81;4954652;29;20031;-82
2023/12/11 06:31:24;;;;;;;9.18;4.40;;;;;;;4.98;100.00;98119.03;4954460;29;20386;-82
2023/12/11 06:33:49;;;;;;;7.75;4.35;;;;;;;5.01;100.00;98129.19;4954540;29;20026;-82
2023/12/11 06:36:15;;;;;;;10.18;5.53;;;;;;;4.87;100.00;98135.00;4954335;29;20058;-81
2023/12/11 06:38:40;;;;;;;8.70;4.82;;;;;;;4.57;100.00;98103.78;4954063;29;20035;-81
2023/12/11 06:41:05;;;;;;;11.63;4.60;;;;;;;4.30;100.00;98087.88;4952944;29;20488;-82
2023/12/11 06:43:31;;;;;;;10.23;5.03;;;;;;;4.45;100.00;98133.53;4954271;29;20031;-82
2023/12/11 06:45:56;;;;;;;14.18;6.53;;;;;;;4.37;100.00;98138.19;4953210;29;20053;-82
2023/12/11 06:48:23;;;;;;;11.55;6.45;;;;;;;4.20;100.00;98120.94;4937057;29;20033;-82
2023/12/11 06:50:48;;;;;;;44.67;19.85;;;;;;;4.27;100.00;98136.13;4937273;29;20432;-81
2023/12/11 06:53:13;;;;;;;22.58;12.98;;;;;;;4.31;100.00;98156.53;4954041;28;20027;-82
2023/12/11 06:55:39;;;;;;;18.20;10.15;;;;;;;4.04;100.00;98103.66;4953953;29;20027;-82
2023/12/11 06:58:04;;;;;;;19.15;9.70;;;;;;;4.33;100.00;98162.44;4954147;29;20027;-82
2023/12/11 07:00:30;;;;;;;22.42;10.82;;;;;;;4.20;100.00;98153.59;4954181;29;20109;-82
2023/12/11 07:02:55;;;;;;;35.60;16.52;;;;;;;4.23;100.00;98162.03;4937568;29;20043;-82
2023/12/11 07:05:20;;;;;;;71.70;30.27;;;;;;;4.23;100.00;98164.59;4953875;29;20420;-81
2023/12/11 07:07:46;;;;;;;27.85;13.55;;;;;;;4.22;100.00;98160.38;4954430;29;20089;-81
2023/12/11 07:10:11;;;;;;;23.75;11.88;;;;;;;4.23;100.00;98163.78;4952872;29;20031;-82
2023/12/11 07:12:40;;;;;;;32.72;14.00;;;;;;;4.06;100.00;98141.34;4953846;29;20046;-82
2023/12/11 07:15:06;;;;;;;28.08;14.10;;;;;;;4.04;100.00;98137.97;4954015;29;20547;-82
2023/12/11 07:17:32;;;;;;;23.63;12.50;;;;;;;3.95;100.00;98125.50;4953855;29;20102;-82
2023/12/11 07:19:57;;;;;;;62.40;24.55;;;;;;;4.31;100.00;98184.06;4953765;29;20034;-81
2023/12/11 07:22:24;;;;;;;41.08;17.08;;;;;;;4.16;100.00;98152.88;4953982;29;20072;-81
2023/12/11 07:24:49;;;;;;;33.63;14.32;;;;;;;4.18;100.00;98160.56;4953520;29;20024;-82
2023/12/11 07:27:15;;;;;;;26.50;18.63;;;;;;;4.32;100.00;98173.66;4953598;29;20032;-82
2023/12/11 07:29:40;;;;;;;21.30;11.23;;;;;;;4.32;100.00;98178.00;4953315;29;20027;-81
2023/12/11 07:32:06;;;;;;;23.38;10.90;;;;;;;4.10;100.00;98131.72;4952320;29;20094;-82
2023/12/11 07:34:31;;;;;;;23.67;10.10;;;;;;;4.44;100.00;98187.75;4953191;29;20029;-81
2023/12/11 07:36:57;;;;;;;71.35;23.60;;;;;;;4.33;100.00;98157.28;4953459;28;20058;-81
2023/12/11 07:39:23;;;;;;;258.67;71.10;;;;;;;4.40;100.00;98163.00;4956678;29;20061;-81
2023/12/11 07:41:48;;;;;;;161.68;44.30;;;;;;;4.47;100.00;98183.28;4957478;29;20066;-81
2023/12/11 07:44:14;;;;;;;71.50;22.08;;;;;;;4.38;100.00;98165.69;4956226;29;20474;-81
2023/12/11 07:46:39;;;;;;;38.75;12.32;;;;;;;4.49;100.00;98184.06;4957325;29;20037;-81
2023/12/11 07:49:04;;;;;;;24.67;10.50;;;;;;;4.35;100.00;98160.66;4956211;29;20452;-81
2023/12/11 07:51:30;;;;;;;40.00;16.95;;;;;;;4.47;100.00;98174.72;4956907;28;20109;-81
2023/12/11 07:53:58;;;;;;;27.48;11.38;;;;;;;4.31;100.00;98153.97;4957282;29;20071;-82
2023/12/11 07:56:25;;;;;;;56.42;23.30;;;;;;;4.49;100.00;98170.31;4956040;29;20031;-82
2023/12/11 07:58:51;;;;;;;36.05;16.10;;;;;;;4.42;100.00;98151.72;4957109;29;20493;-80
2023/12/11 08:01:17;;;;;;;25.55;11.68;;;;;;;4.54;100.00;98175.28;4955788;29;20043;-80
2023/12/11 08:03:43;;;;;;;21.77;17.25;;;;;;;4.62;100.00;98183.50;4957238;29;20384;-80
2023/12/11 08:06:08;;;;;;;14.40;10.10;;;;;;;4.47;100.00;98157.53;4939760;29;20502;-81
2023/12/11 08:08:43;;;;;;;19.00;10.10;;;;;;;4.56;100.00;98173.47;4956635;29;20055;-81
2023/12/11 08:11:30;;;;;;;12.60;8.30;;;;;;;4.51;100.00;98160.78;4956465;28;20027;-80
2023/12/11 08:13:55;;;;;;;31.85;15.02;;;;;;;4.52;100.00;98159.88;4957146;29;20035;-80
2023/12/11 08:16:23;;;;;;;25.70;11.98;;;;;;;4.61;100.00;98176.66;4956891;29;20054;-81
2023/12/11 08:18:48;;;;;;;34.58;14.48;;;;;;;4.76;100.00;98191.41;4939287;29;20074;-81
2023/12/11 08:21:16;;;;;;;14.15;7.10;;;;;;;4.62;100.00;98161.13;4956708;29;20062;-80
2023/12/11 08:23:45;;;;;;;14.38;7.22;;;;;;;4.65;100.00;98163.56;4939035;29;20028;-80
2023/12/11 08:26:19;;;;;;;26.63;12.20;;;;;;;4.85;100.00;98187.59;4939244;29;20042;-81
2023/12/11 08:28:46;;;;;;;24.05;11.65;;;;;;;4.89;100.00;98191.72;4956311;29;20054;-81
2023/12/11 08:31:12;;;;;;;22.20;11.27;;;;;;;4.90;100.00;98183.06;4939220;29;20027;-80
2023/12/11 08:33:37;;;;;;;20.25;11.20;;;;;;;4.73;100.00;98152.91;4955972;29;20070;-80
2023/12/11 08:36:04;;;;;;;22.02;12.15;;;;;;;4.97;100.00;98184.41;4956302;29;20038;-80
2023/12/11 08:38:30;;;;;;;20.17;10.32;;;;;;;5.06;100.00;98209.81;4956943;29;20163;-80
2023/12/11 08:40:55;;;;;;;23.45;13.30;;;;;;;5.05;100.00;98208.13;4940224;29;20027;-80
2023/12/11 08:43:21;;;;;;;25.35;12.48;;;;;;;5.02;100.00;98186.81;4956676;29;20038;-80
2023/12/11 08:45:47;;;;;;;22.30;12.43;;;;;;;5.14;100.00;98204.25;4956774;29;20129;-80
2023/12/11 08:48:13;;;;;;;26.92;12.40;;;;;;;5.17;100.00;98206.72;4934629;29;20493;-80
2023/12/11 08:50:39;;;;;;;12.73;7.85;;;;;;;5.09;100.00;98190.75;4934671;29;20043;-80
2023/12/11 08:53:05;;;;;;;15.02;10.20;;;;;;;5.14;100.00;98205.13;4934696;29;20560;-81
2023/12/11 08:55:31;;;;;;;32.58;17.25;;;;;;;5.04;100.00;98180.66;4935300;29;20043;-80
2023/12/11 08:57:57;;;;;;;19.77;11.90;;;;;;;5.26;100.00;98217.41;4934820;29;20183;-80
2023/12/11 09:00:22;;;;;;;16.17;9.07;;;;;;;5.23;100.00;98196.09;4936361;29;20537;-81
2023/12/11 09:02:48;;;;;;;14.25;8.75;;;;;;;5.17;100.00;98184.31;4934400;29;20540;-80
2023/12/11 09:05:14;;;;;;;14.43;9.32;;;;;;;5.37;100.00;98216.09;4934525;29;20062;-80
2023/12/11 09:07:40;;;;;;;17.75;10.20;;;;;;;5.31;100.00;98194.00;4934172;29;20063;-80
2023/12/11 09:10:07;;;;;;;15.43;9.85;;;;;;;5.31;100.00;98195.72;4934547;29;20040;-80
2023/12/11 09:12:32;;;;;;;12.90;8.80;;;;;;;5.38;100.00;98204.84;4934237;29;20378;-80
2023/12/11 09:14:58;;;;;;;15.55;9.07;;;;;;;5.39;100.00;98207.34;4934415;29;20083;-81
2023/12/11 09:17:23;;;;;;;18.92;9.85;;;;;;;5.57;100.00;98217.69;4933994;29;20064;-81
2023/12/11 09:19:48;;;;;;;13.95;7.93;;;;;;;5.24;100.00;98151.31;4950548;29;20045;-81
2023/12/11 09:22:14;;;;;;;11.10;7.35;;;;;;;5.52;100.00;98199.84;4938654;29;20655;-80
2023/12/11 09:24:40;;;;;;;17.88;9.10;;;;;;;5.36;100.00;98160.19;4955564;29;20082;-80
2023/12/11 09:27:06;;;;;;;12.23;6.97;;;;;;;5.61;100.00;98188.22;4955985;29;20031;-80
2023/12/11 09:29:32;;;;;;;10.73;6.55;;;;;;;5.54;100.00;98172.19;4955347;29;20046;-81
2023/12/11 09:31:57;;;;;;;13.23;7.03;;;;;;;5.50;100.00;98156.00;4955957;29;20050;-80
2023/12/11 09:34:22;;;;;;;20.88;10.65;;;;;;;5.74;100.00;98186.69;4956062;29;20023;-81
2023/12/11 09:36:48;;;;;;;22.23;11.45;;;;;;;5.82;100.00;98194.06;4955335;29;20027;-80
2023/12/11 09:39:13;;;;;;;24.60;12.38;;;;;;;5.79;100.00;98187.28;4955495;29;20102;-81
2023/12/11 09:41:40;;;;;;;18.77;10.65;;;;;;;5.79;100.00;98174.38;4955360;29;20114;-81
2023/12/11 09:44:08;;;;;;;17.17;9.50;;;;;;;5.94;100.00;98183.97;4955402;29;20028;-81
2023/12/11 09:46:46;;;;;;;12.02;7.15;;;;;;;5.91;100.00;98189.25;4937688;29;20043;-81
2023/12/11 09:49:11;;;;;;;13.60;7.65;;;;;;;6.01;100.00;98189.66;4937933;29;20023;-80
2023/12/11 09:51:37;;;;;;;14.07;7.97;;;;;;;5.86;100.00;98152.50;4955088;28;20034;-81
2023/12/11 09:54:03;;;;;;;12.48;7.70;;;;;;;6.12;100.00;98183.94;4955287;29;20023;-80
2023/12/11 09:56:30;;;;;;;13.95;8.25;;;;;;;5.87;100.00;98143.00;4955141;29;20031;-80
2023/12/11 09:58:57;;;;;;;12.63;7.90;;;;;;;6.14;100.00;98174.34;4954788;29;20046;-81
2023/12/11 10:01:23;;;;;;;26.48;15.52;;;;;;;6.14;100.00;98171.75;4954109;28;20496;-80
2023/12/11 10:03:48;;;;;;;30.52;21.73;;;;;;;6.10;100.00;98157.31;4937625;29;20038;-80
2023/12/11 10:06:14;;;;;;;13.27;8.60;;;;;;;6.01;100.00;98125.03;4954855;29;20031;-80
2023/12/11 10:08:43;;;;;;;16.30;12.30;;;;;;;6.25;100.00;98170.28;4937343;29;20055;-80
2023/12/11 10:11:11;;;;;;;14.48;9.40;;;;;;;6.09;100.00;98130.63;4937447;29;20023;-81
2023/12/11 10:13:37;;;;;;;27.27;17.48;;;;;;;6.33;100.00;98150.94;4954494;29;20114;-81
2023/12/11 10:16:02;;;;;;;16.13;9.85;;;;;;;6.37;100.00;98149.88;4955030;29;20063;-81
2023/12/11 10:18:28;;;;;;;14.13;7.80;;;;;;;6.38;100.00;98130.84;4954578;29;20031;-81
2023/12/11 10:20:57;;;;;;;15.57;8.48;;;;;;;6.28;100.00;98112.41;4954457;29;20027;-80
2023/12/11 10:23:23;;;;;;;15.77;7.80;;;;;;;6.44;100.00;98123.56;4954574;29;20027;-80
2023/12/11 10:26:09;;;;;;;12.75;7.13;;;;;;;6.54;100.00;98129.09;4954874;29;20062;-81
2023/12/11 10:28:34;;;;;;;14.32;7.85;;;;;;;6.39;100.00;98091.97;4954328;29;20138;-80
2023/12/11 10:31:02;;;;;;;12.68;6.50;;;;;;;6.66;100.00;98128.44;4954734;29;20102;-80
2023/12/11 10:33:32;;;;;;;13.75;6.82;;;;;;;6.61;100.00;98114.91;4954644;29;20031;-80
2023/12/11 10:36:15;;;;;;;12.77;7.20;;;;;;;6.81;100.00;98131.09;4954355;29;20034;-80
2023/12/11 10:38:41;;;;;;;9.85;6.18;;;;;;;6.66;100.00;98094.81;4954244;29;20062;-81
2023/12/11 10:41:07;;;;;;;11.25;7.43;;;;;;;6.84;100.00;98111.06;4937143;29;20027;-80
2023/12/11 10:43:40;;;;;;;16.35;9.43;;;;;;;6.87;100.00;98113.47;4954414;29;20031;-81
2023/12/11 10:46:06;;;;;;;23.52;12.75;;;;;;;6.60;100.00;98058.09;4954277;29;20077;-81
2023/12/11 10:48:34;;;;;;;23.90;13.32;;;;;;;6.85;100.00;98099.78;4937251;29;20420;-81
2023/12/11 10:51:01;;;;;;;10.02;6.45;;;;;;;6.87;100.00;98089.31;4936747;29;20019;-81
2023/12/11 10:53:26;;;;;;;12.45;7.97;;;;;;;6.89;100.00;98079.72;4953872;28;20035;-81
2023/12/11 10:55:54;;;;;;;15.40;10.00;;;;;;;6.99;100.00;98088.63;4952786;29;20053;-80
2023/12/11 10:58:20;;;;;;;12.20;9.38;;;;;;;6.87;100.00;98059.13;4954101;29;20472;-81
2023/12/11 11:00:45;;;;;;;10.77;7.03;;;;;;;6.97;100.00;98069.78;4953922;29;20036;-80
2023/12/11 11:03:12;;;;;;;7.10;5.15;;;;;;;7.06;100.00;98079.59;4952673;29;20476;-81
2023/12/11 11:05:38;;;;;;;15.88;9.27;;;;;;;7.19;100.00;98085.75;4953924;29;20031;-81
2023/12/11 11:08:17;;;;;;;16.67;11.15;;;;;;;7.23;100.00;98089.81;4933466;29;20401;-81
2023/12/11 11:11:08;;;;;;;16.30;12.73;;;;;;;7.27;100.00;98089.66;4949278;29;20024;-81
2023/12/11 11:13:47;;;;;;;18.05;11.18;;;;;;;6.86;100.00;98023.78;4935190;29;20110;-80
2023/12/11 11:16:12;;;;;;;17.70;10.55;;;;;;;7.02;100.00;98046.22;4934989;29;20477;-80
2023/12/11 11:19:04;;;;;;;12.10;8.00;;;;;;;7.31;100.00;98091.13;4950126;29;20035;-81
2023/12/11 11:21:29;;;;;;;12.10;9.30;;;;;;;7.27;100.00;98079.28;4949883;29;20019;-81